createdAt,value
2023-04-16T00:00:03.191Z,1012.7
2023-04-16T00:01:02.108Z,1012.7
2023-04-16T00:02:02.548Z,1012.8
2023-04-16T00:03:02.986Z,1012.7
2023-04-16T00:04:03.084Z,1012.7
2023-04-16T00:05:02.433Z,1012.7
2023-04-16T00:06:02.126Z,1012.7
2023-04-16T00:07:02.276Z,1012.7
2023-04-16T00:08:01.978Z,1012.7
2023-04-16T00:09:01.961Z,1012.7
2023-04-16T00:10:01.883Z,1012.7
2023-04-16T00:11:01.873Z,1012.8
2023-04-16T00:12:01.769Z,1012.7
2023-04-16T00:13:01.752Z,1012.8
2023-04-16T00:14:01.757Z,1012.7
2023-04-16T00:15:02.775Z,1012.7
2023-04-16T00:16:02.697Z,1012.7
2023-04-16T00:18:01.907Z,1012.7
2023-04-16T00:19:02.694Z,1012.7
2023-04-16T00:20:02.544Z,1012.6
2023-04-16T00:21:02.584Z,1012.7
2023-04-16T00:22:02.467Z,1012.6
2023-04-16T00:23:02.600Z,1012.6
2023-04-16T00:24:02.416Z,1012.6
2023-04-16T00:25:02.615Z,1012.6
2023-04-16T00:26:02.342Z,1012.6
2023-04-16T00:27:02.457Z,1012.6
2023-04-16T00:28:02.339Z,1012.6
2023-04-16T00:29:02.279Z,1012.6
2023-04-16T00:30:02.352Z,1012.6
2023-04-16T00:31:02.536Z,1012.7
2023-04-16T00:32:02.296Z,1012.6
2023-04-16T00:33:02.619Z,1012.7
2023-04-16T00:34:02.479Z,1012.7
2023-04-16T00:35:02.275Z,1012.7
2023-04-16T00:36:02.336Z,1012.7
2023-04-16T00:37:02.251Z,1012.6
2023-04-16T00:38:02.212Z,1012.7
2023-04-16T00:39:02.341Z,1012.6
2023-04-16T00:40:02.260Z,1012.7
2023-04-16T00:41:02.090Z,1012.7
2023-04-16T00:42:02.172Z,1012.7
2023-04-16T00:43:02.040Z,1012.7
2023-04-16T00:44:02.116Z,1012.8
2023-04-16T00:45:02.377Z,1012.7
2023-04-16T00:46:02.140Z,1012.7
2023-04-16T00:47:02.235Z,1012.7
2023-04-16T00:48:02.536Z,1012.7
2023-04-16T00:49:02.357Z,1012.7
2023-04-16T00:50:02.211Z,1012.7
2023-04-16T00:51:02.203Z,1012.7
2023-04-16T00:52:02.096Z,1012.7
2023-04-16T00:53:02.222Z,1012.7
2023-04-16T00:54:02.095Z,1012.7
2023-04-16T00:55:02.114Z,1012.8
2023-04-16T00:56:01.949Z,1012.7
2023-04-16T00:57:02.050Z,1012.7
2023-04-16T00:58:01.921Z,1012.7
2023-04-16T00:59:01.996Z,1012.7
2023-04-16T01:00:02.766Z,1012.7
2023-04-16T01:01:02.296Z,1012.7
2023-04-16T01:02:03.024Z,1012.7
2023-04-16T01:03:03.090Z,1012.8
2023-04-16T01:04:02.370Z,1012.8
2023-04-16T01:05:02.113Z,1012.7
2023-04-16T01:06:02.060Z,1012.7
2023-04-16T01:07:01.894Z,1012.7
2023-04-16T01:08:02.075Z,1012.7
2023-04-16T01:09:01.849Z,1012.7
2023-04-16T01:10:01.850Z,1012.8
2023-04-16T01:11:01.740Z,1012.8
2023-04-16T01:12:01.869Z,1012.7
2023-04-16T01:13:01.630Z,1012.8
2023-04-16T01:14:01.646Z,1012.8
2023-04-16T01:15:02.637Z,1012.8
2023-04-16T01:16:02.686Z,1012.8
2023-04-16T01:17:02.576Z,1012.8
2023-04-16T01:18:02.826Z,1012.8
2023-04-16T01:19:02.605Z,1012.8
2023-04-16T01:20:02.617Z,1012.8
2023-04-16T01:21:02.425Z,1012.8
2023-04-16T01:22:02.452Z,1012.9
2023-04-16T01:23:02.416Z,1012.9
2023-04-16T01:24:02.455Z,1012.8
2023-04-16T01:25:02.469Z,1012.8
2023-04-16T01:26:02.393Z,1012.9
2023-04-16T01:27:02.383Z,1012.8
2023-04-16T01:28:02.396Z,1012.9
2023-04-16T01:29:02.320Z,1012.9
2023-04-16T01:30:02.274Z,1012.9
2023-04-16T01:31:02.345Z,1012.9
2023-04-16T01:32:02.183Z,1012.9
2023-04-16T01:33:02.552Z,1012.9
2023-04-16T01:34:02.363Z,1012.9
2023-04-16T01:35:02.380Z,1012.9
2023-04-16T01:36:02.184Z,1012.9
2023-04-16T01:37:02.219Z,1012.9
2023-04-16T01:38:02.053Z,1012.9
2023-04-16T01:39:02.105Z,1012.9
2023-04-16T01:40:02.233Z,1012.9
2023-04-16T01:41:02.025Z,1012.9
2023-04-16T01:42:02.096Z,1012.9
2023-04-16T01:43:02.047Z,1012.9
2023-04-16T01:44:02.040Z,1012.9
2023-04-16T01:45:01.894Z,1012.9
2023-04-16T01:46:01.989Z,1013
2023-04-16T01:47:02.098Z,1013
2023-04-16T01:48:02.428Z,1013
2023-04-16T01:49:02.059Z,1013
2023-04-16T01:50:02.171Z,1013
2023-04-16T01:51:02.073Z,1013
2023-04-16T01:52:02.113Z,1013
2023-04-16T01:53:01.968Z,1013
2023-04-16T01:54:02.082Z,1013
2023-04-16T01:55:01.971Z,1013
2023-04-16T01:56:01.849Z,1013
2023-04-16T01:57:01.707Z,1013
2023-04-16T01:58:01.666Z,1013
2023-04-16T01:59:01.691Z,1013
2023-04-16T02:00:03.031Z,1013
2023-04-16T02:01:01.933Z,1013.1
2023-04-16T02:02:02.049Z,1013
2023-04-16T02:03:02.911Z,1013.1
2023-04-16T02:04:02.205Z,1013.1
2023-04-16T02:05:02.150Z,1013.1
2023-04-16T02:06:02.008Z,1013.1
2023-04-16T02:07:02.067Z,1013.1
2023-04-16T02:08:01.855Z,1013.1
2023-04-16T02:09:01.884Z,1013.1
2023-04-16T02:10:01.812Z,1013
2023-04-16T02:11:01.771Z,1013.1
2023-04-16T02:12:01.793Z,1013.1
2023-04-16T02:13:01.750Z,1013.1
2023-04-16T02:14:02.729Z,1013.1
2023-04-16T02:15:02.540Z,1013.1
2023-04-16T02:16:02.812Z,1013.1
2023-04-16T02:18:02.839Z,1013.1
2023-04-16T02:19:02.469Z,1013.2
2023-04-16T02:20:02.551Z,1013.1
2023-04-16T02:21:02.437Z,1013.1
2023-04-16T02:22:02.583Z,1013.1
2023-04-16T02:23:02.378Z,1013.1
2023-04-16T02:24:02.386Z,1013.2
2023-04-16T02:25:02.459Z,1013.2
2023-04-16T02:26:02.329Z,1013.2
2023-04-16T02:27:02.308Z,1013.1
2023-04-16T02:28:02.194Z,1013.1
2023-04-16T02:29:02.280Z,1013.1
2023-04-16T02:30:02.223Z,1013.1
2023-04-16T02:31:02.262Z,1013.1
2023-04-16T02:32:02.070Z,1013.2
2023-04-16T02:33:02.099Z,1013.2
2023-04-16T02:34:01.786Z,1013.1
2023-04-16T02:35:01.827Z,1013.2
2023-04-16T02:36:01.713Z,1013.2
2023-04-16T02:37:01.650Z,1013.2
2023-04-16T02:38:01.600Z,1013.2
2023-04-16T02:39:02.633Z,1013.2
2023-04-16T02:40:02.527Z,1013.2
2023-04-16T02:41:02.657Z,1013.2
2023-04-16T02:42:02.873Z,1013.2
2023-04-16T02:43:02.596Z,1013.2
2023-04-16T02:44:02.532Z,1013.2
2023-04-16T02:45:02.635Z,1013.2
2023-04-16T02:46:02.668Z,1013.2
2023-04-16T02:47:02.570Z,1013.2
2023-04-16T02:48:03.010Z,1013.3
2023-04-16T02:49:01.698Z,1013.3
2023-04-16T02:50:01.733Z,1013.3
2023-04-16T02:51:01.649Z,1013.3
2023-04-16T02:52:02.663Z,1013.3
2023-04-16T02:53:02.568Z,1013.3
2023-04-16T02:54:02.543Z,1013.4
2023-04-16T02:55:02.462Z,1013.3
2023-04-16T02:56:02.532Z,1013.3
2023-04-16T02:57:02.393Z,1013.3
2023-04-16T02:58:02.440Z,1013.4
2023-04-16T02:59:02.445Z,1013.4
2023-04-16T03:00:02.912Z,1013.4
2023-04-16T03:01:01.850Z,1013.4
2023-04-16T03:02:02.211Z,1013.4
2023-04-16T03:03:02.348Z,1013.5
2023-04-16T03:04:02.310Z,1013.5
2023-04-16T03:05:01.924Z,1013.5
2023-04-16T03:06:02.014Z,1013.5
2023-04-16T03:07:01.929Z,1013.5
2023-04-16T03:08:01.959Z,1013.5
2023-04-16T03:09:01.775Z,1013.6
2023-04-16T03:10:01.886Z,1013.5
2023-04-16T03:11:01.782Z,1013.5
2023-04-16T03:12:01.769Z,1013.5
2023-04-16T03:13:01.608Z,1013.5
2023-04-16T03:14:02.643Z,1013.6
2023-04-16T03:15:02.537Z,1013.5
2023-04-16T03:16:02.881Z,1013.5
2023-04-16T03:18:02.644Z,1013.6
2023-04-16T03:19:02.344Z,1013.5
2023-04-16T03:20:02.266Z,1013.5
2023-04-16T03:21:02.341Z,1013.6
2023-04-16T03:22:02.360Z,1013.6
2023-04-16T03:23:02.154Z,1013.7
2023-04-16T03:24:02.182Z,1013.7
2023-04-16T03:25:02.065Z,1013.7
2023-04-16T03:26:02.075Z,1013.7
2023-04-16T03:27:01.931Z,1013.7
2023-04-16T03:28:01.943Z,1013.7
2023-04-16T03:29:01.988Z,1013.7
2023-04-16T03:30:01.900Z,1013.8
2023-04-16T03:31:01.874Z,1013.8
2023-04-16T03:32:01.742Z,1013.8
2023-04-16T03:33:02.004Z,1013.8
2023-04-16T03:34:01.729Z,1013.8
2023-04-16T03:35:01.829Z,1013.9
2023-04-16T03:36:02.561Z,1013.9
2023-04-16T03:37:02.438Z,1013.9
2023-04-16T03:38:02.520Z,1013.8
2023-04-16T03:39:02.395Z,1013.9
2023-04-16T03:40:02.479Z,1013.9
2023-04-16T03:41:02.353Z,1013.9
2023-04-16T03:42:02.452Z,1013.9
2023-04-16T03:43:02.396Z,1013.9
2023-04-16T03:44:02.141Z,1014
2023-04-16T03:45:02.210Z,1013.9
2023-04-16T03:46:02.422Z,1014
2023-04-16T03:47:02.133Z,1013.9
2023-04-16T03:48:02.160Z,1014
2023-04-16T03:49:02.021Z,1014
2023-04-16T03:50:02.164Z,1014
2023-04-16T03:51:01.924Z,1014
2023-04-16T03:52:02.051Z,1014
2023-04-16T03:53:01.818Z,1014
2023-04-16T03:54:01.890Z,1014
2023-04-16T03:55:01.747Z,1014
2023-04-16T03:56:01.729Z,1014.1
2023-04-16T03:57:01.594Z,1014.1
2023-04-16T03:58:01.737Z,1014
2023-04-16T03:59:02.619Z,1014.1
2023-04-16T04:00:03.025Z,1014.1
2023-04-16T04:01:02.028Z,1014.1
2023-04-16T04:02:02.724Z,1014.1
2023-04-16T04:03:03.442Z,1014.1
2023-04-16T04:04:02.842Z,1014.1
2023-04-16T04:05:02.986Z,1014.1
2023-04-16T04:06:01.760Z,1014.2
2023-04-16T04:07:01.682Z,1014.2
2023-04-16T04:08:02.615Z,1014.2
2023-04-16T04:09:02.662Z,1014.2
2023-04-16T04:10:02.652Z,1014.2
2023-04-16T04:11:02.561Z,1014.3
2023-04-16T04:12:02.547Z,1014.3
2023-04-16T04:13:02.442Z,1014.3
2023-04-16T04:14:02.505Z,1014.3
2023-04-16T04:15:02.376Z,1014.3
2023-04-16T04:16:02.640Z,1014.3
2023-04-16T04:18:02.570Z,1014.3
2023-04-16T04:19:02.344Z,1014.2
2023-04-16T04:20:02.696Z,1014.2
2023-04-16T04:21:02.398Z,1014.2
2023-04-16T04:22:02.382Z,1014.2
2023-04-16T04:23:02.135Z,1014.3
2023-04-16T04:24:02.260Z,1014.4
2023-04-16T04:25:02.068Z,1014.3
2023-04-16T04:26:02.255Z,1014.3
2023-04-16T04:27:01.994Z,1014.3
2023-04-16T04:28:02.078Z,1014.4
2023-04-16T04:29:02.086Z,1014.3
2023-04-16T04:30:01.979Z,1014.4
2023-04-16T04:31:02.592Z,1014.4
2023-04-16T04:33:02.882Z,1014.4
2023-04-16T04:34:02.532Z,1014.4
2023-04-16T04:35:02.612Z,1014.4
2023-04-16T04:36:02.500Z,1014.4
2023-04-16T04:37:02.560Z,1014.5
2023-04-16T04:38:03.301Z,1014.5
2023-04-16T04:39:01.907Z,1014.5
2023-04-16T04:40:01.988Z,1014.5
2023-04-16T04:41:01.841Z,1014.5
2023-04-16T04:42:02.018Z,1014.5
2023-04-16T04:43:01.745Z,1014.6
2023-04-16T04:44:01.774Z,1014.6
2023-04-16T04:45:01.591Z,1014.6
2023-04-16T04:46:02.914Z,1014.6
2023-04-16T04:48:02.425Z,1014.7
2023-04-16T04:49:02.051Z,1014.7
2023-04-16T04:50:02.123Z,1014.7
2023-04-16T04:51:05.686Z,1014.8
2023-04-16T04:52:02.311Z,1014.7
2023-04-16T04:53:02.350Z,1014.6
2023-04-16T04:54:02.314Z,1014.7
2023-04-16T04:55:02.153Z,1014.7
2023-04-16T04:56:13.509Z,1014.8
2023-04-16T04:57:02.231Z,1014.7
2023-04-16T04:58:02.058Z,1014.8
2023-04-16T04:59:02.194Z,1014.7
2023-04-16T05:00:02.692Z,1014.8
2023-04-16T05:01:02.773Z,1014.7
2023-04-16T05:03:02.416Z,1014.8
2023-04-16T05:04:02.274Z,1014.8
2023-04-16T05:05:02.202Z,1014.8
2023-04-16T05:06:02.041Z,1014.8
2023-04-16T05:07:01.920Z,1014.8
2023-04-16T05:08:02.035Z,1014.9
2023-04-16T05:09:01.852Z,1014.9
2023-04-16T05:10:01.920Z,1014.9
2023-04-16T05:11:01.755Z,1015
2023-04-16T05:12:01.786Z,1014.9
2023-04-16T05:13:01.581Z,1014.9
2023-04-16T05:14:02.646Z,1014.9
2023-04-16T05:15:02.553Z,1015
2023-04-16T05:16:02.638Z,1015
2023-04-16T05:18:02.104Z,1015
2023-04-16T05:19:01.919Z,1015
2023-04-16T05:20:01.982Z,1015
2023-04-16T05:21:01.747Z,1015.1
2023-04-16T05:22:01.802Z,1015
2023-04-16T05:23:01.813Z,1015.1
2023-04-16T05:24:01.656Z,1015.1
2023-04-16T05:25:02.640Z,1015.1
2023-04-16T05:26:02.512Z,1015.1
2023-04-16T05:27:02.601Z,1015.1
2023-04-16T05:28:02.485Z,1015.1
2023-04-16T05:29:02.555Z,1015.1
2023-04-16T05:30:02.537Z,1015.1
2023-04-16T05:31:02.697Z,1015.1
2023-04-16T05:32:02.479Z,1015.1
2023-04-16T05:33:02.419Z,1015.1
2023-04-16T05:34:02.349Z,1015.1
2023-04-16T05:35:02.363Z,1015.1
2023-04-16T05:36:02.362Z,1015.1
2023-04-16T05:37:02.164Z,1015.1
2023-04-16T05:38:02.252Z,1015.1
2023-04-16T05:39:02.316Z,1015.1
2023-04-16T05:40:01.970Z,1015.1
2023-04-16T05:41:02.123Z,1015
2023-04-16T05:42:01.903Z,1015.1
2023-04-16T05:43:01.910Z,1015.1
2023-04-16T05:44:01.831Z,1015
2023-04-16T05:45:01.928Z,1015.1
2023-04-16T05:46:01.831Z,1015.1
2023-04-16T05:47:02.593Z,1015.1
2023-04-16T05:48:02.795Z,1015.1
2023-04-16T05:49:02.518Z,1015.2
2023-04-16T05:50:02.590Z,1015.2
2023-04-16T05:51:02.522Z,1015.2
2023-04-16T05:52:02.547Z,1015.2
2023-04-16T05:53:02.395Z,1015.2
2023-04-16T05:54:02.492Z,1015.2
2023-04-16T05:55:02.501Z,1015.2
2023-04-16T05:56:02.393Z,1015.2
2023-04-16T05:57:02.521Z,1015.2
2023-04-16T05:58:02.264Z,1015.3
2023-04-16T05:59:02.211Z,1015.3
2023-04-16T06:00:02.657Z,1015.3
2023-04-16T06:01:02.565Z,1015.4
2023-04-16T06:03:02.652Z,1015.4
2023-04-16T06:04:03.184Z,1015.3
2023-04-16T06:05:02.151Z,1015.3
2023-04-16T06:06:02.083Z,1015.4
2023-04-16T06:07:01.893Z,1015.3
2023-04-16T06:08:01.770Z,1015.3
2023-04-16T06:09:01.780Z,1015.3
2023-04-16T06:10:01.703Z,1015.3
2023-04-16T06:11:01.657Z,1015.3
2023-04-16T06:12:01.684Z,1015.3
2023-04-16T06:13:02.585Z,1015.3
2023-04-16T06:14:02.533Z,1015.3
2023-04-16T06:15:02.540Z,1015.4
2023-04-16T06:16:02.572Z,1015.4
2023-04-16T06:17:02.512Z,1015.3
2023-04-16T06:18:02.530Z,1015.4
2023-04-16T06:19:02.374Z,1015.4
2023-04-16T06:20:02.382Z,1015.4
2023-04-16T06:21:02.312Z,1015.4
2023-04-16T06:22:02.119Z,1015.5
2023-04-16T06:23:02.189Z,1015.5
2023-04-16T06:24:02.038Z,1015.4
2023-04-16T06:25:02.116Z,1015.5
2023-04-16T06:26:01.860Z,1015.5
2023-04-16T06:27:02.083Z,1015.5
2023-04-16T06:28:01.777Z,1015.6
2023-04-16T06:29:01.862Z,1015.5
2023-04-16T06:30:01.730Z,1015.6
2023-04-16T06:31:02.006Z,1015.6
2023-04-16T06:33:01.850Z,1015.6
2023-04-16T06:34:01.673Z,1015.6
2023-04-16T06:35:01.770Z,1015.7
2023-04-16T06:36:02.654Z,1015.6
2023-04-16T06:37:02.554Z,1015.6
2023-04-16T06:38:02.613Z,1015.6
2023-04-16T06:39:02.558Z,1015.6
2023-04-16T06:40:02.574Z,1015.6
2023-04-16T06:41:02.416Z,1015.5
2023-04-16T06:42:02.520Z,1015.6
2023-04-16T06:43:02.386Z,1015.6
2023-04-16T06:44:02.411Z,1015.6
2023-04-16T06:45:02.399Z,1015.6
2023-04-16T06:46:02.205Z,1015.6
2023-04-16T06:47:02.467Z,1015.6
2023-04-16T06:48:02.442Z,1015.6
2023-04-16T06:49:02.276Z,1015.6
2023-04-16T06:50:02.076Z,1015.6
2023-04-16T06:51:02.179Z,1015.6
2023-04-16T06:52:06.188Z,1015.6
2023-04-16T06:53:01.892Z,1015.5
2023-04-16T06:54:01.858Z,1015.6
2023-04-16T06:55:01.743Z,1015.6
2023-04-16T06:56:01.816Z,1015.6
2023-04-16T06:57:01.672Z,1015.5
2023-04-16T06:58:01.697Z,1015.6
2023-04-16T06:59:02.662Z,1015.6
2023-04-16T07:00:02.517Z,1015.6
2023-04-16T07:01:02.762Z,1015.6
2023-04-16T07:02:02.642Z,1015.6
2023-04-16T07:03:03.079Z,1015.6
2023-04-16T07:04:02.663Z,1015.7
2023-04-16T07:05:02.587Z,1015.7
2023-04-16T07:06:02.347Z,1015.7
2023-04-16T07:07:02.550Z,1015.6
2023-04-16T07:08:02.355Z,1015.6
2023-04-16T07:09:02.375Z,1015.7
2023-04-16T07:10:02.462Z,1015.7
2023-04-16T07:11:02.257Z,1015.7
2023-04-16T07:12:02.225Z,1015.7
2023-04-16T07:13:02.094Z,1015.7
2023-04-16T07:14:02.298Z,1015.7
2023-04-16T07:15:02.058Z,1015.8
2023-04-16T07:16:02.265Z,1015.7
2023-04-16T07:17:01.826Z,1015.8
2023-04-16T07:18:01.994Z,1015.7
2023-04-16T07:19:01.694Z,1015.7
2023-04-16T07:20:01.784Z,1015.7
2023-04-16T07:21:01.566Z,1015.7
2023-04-16T07:22:02.670Z,1015.7
2023-04-16T07:23:02.550Z,1015.7
2023-04-16T07:24:02.546Z,1015.7
2023-04-16T07:25:02.488Z,1015.7
2023-04-16T07:26:02.504Z,1015.8
2023-04-16T07:27:02.394Z,1015.8
2023-04-16T07:28:02.453Z,1015.7
2023-04-16T07:29:02.360Z,1015.7
2023-04-16T07:30:02.393Z,1015.8
2023-04-16T07:31:02.318Z,1015.8
2023-04-16T07:32:02.029Z,1015.7
2023-04-16T07:33:02.108Z,1015.7
2023-04-16T07:34:01.903Z,1015.7
2023-04-16T07:35:01.847Z,1015.7
2023-04-16T07:36:01.833Z,1015.7
2023-04-16T07:37:01.818Z,1015.7
2023-04-16T07:38:01.637Z,1015.8
2023-04-16T07:39:01.734Z,1015.7
2023-04-16T07:40:02.668Z,1015.7
2023-04-16T07:41:02.603Z,1015.8
2023-04-16T07:42:02.613Z,1015.8
2023-04-16T07:43:02.446Z,1015.8
2023-04-16T07:44:02.464Z,1015.8
2023-04-16T07:45:02.342Z,1015.9
2023-04-16T07:46:02.533Z,1015.9
2023-04-16T07:47:06.120Z,1015.9
2023-04-16T07:48:02.045Z,1015.8
2023-04-16T07:49:01.870Z,1015.8
2023-04-16T07:50:01.693Z,1015.9
2023-04-16T07:51:01.751Z,1015.9
2023-04-16T07:52:01.642Z,1015.8
2023-04-16T07:53:01.687Z,1015.9
2023-04-16T07:54:02.643Z,1016
2023-04-16T07:55:02.520Z,1015.9
2023-04-16T07:56:02.579Z,1016
2023-04-16T07:57:02.521Z,1016
2023-04-16T07:58:02.576Z,1016
2023-04-16T07:59:24.457Z,1016
2023-04-16T08:00:02.303Z,1016
2023-04-16T08:01:02.243Z,1016
2023-04-16T08:02:02.065Z,1016.1
2023-04-16T08:03:02.380Z,1016
2023-04-16T08:04:02.777Z,1016.1
2023-04-16T08:05:02.766Z,1016.2
2023-04-16T08:06:02.548Z,1016.1
2023-04-16T08:07:02.490Z,1016.1
2023-04-16T08:08:02.591Z,1016.1
2023-04-16T08:09:02.407Z,1016.1
2023-04-16T08:10:02.606Z,1016.1
2023-04-16T08:11:02.345Z,1016.1
2023-04-16T08:12:02.277Z,1016.1
2023-04-16T08:13:02.429Z,1016.2
2023-04-16T08:14:02.258Z,1016.1
2023-04-16T08:15:02.038Z,1016.2
2023-04-16T08:16:02.545Z,1016.1
2023-04-16T08:17:01.883Z,1016.2
2023-04-16T08:18:02.159Z,1016.2
2023-04-16T08:19:01.992Z,1016.2
2023-04-16T08:20:01.924Z,1016.2
2023-04-16T08:21:01.697Z,1016.2
2023-04-16T08:22:01.773Z,1016.2
2023-04-16T08:23:01.687Z,1016.2
2023-04-16T08:24:01.721Z,1016.2
2023-04-16T08:25:01.618Z,1016.2
2023-04-16T08:26:02.790Z,1016.2
2023-04-16T08:27:20.485Z,1016.2
2023-04-16T08:28:02.226Z,1016.2
2023-04-16T08:29:02.201Z,1016.3
2023-04-16T08:30:02.225Z,1016.3
2023-04-16T08:31:02.128Z,1016.2
2023-04-16T08:32:02.320Z,1016.2
2023-04-16T08:33:02.565Z,1016.3
2023-04-16T08:34:02.322Z,1016.2
2023-04-16T08:35:02.082Z,1016.3
2023-04-16T08:36:02.163Z,1016.2
2023-04-16T08:37:02.051Z,1016.2
2023-04-16T08:38:03.060Z,1016.2
2023-04-16T08:39:01.707Z,1016.2
2023-04-16T08:40:01.752Z,1016.3
2023-04-16T08:41:01.702Z,1016.3
2023-04-16T08:42:01.712Z,1016.3
2023-04-16T08:43:02.588Z,1016.3
2023-04-16T08:44:02.497Z,1016.3
2023-04-16T08:45:02.577Z,1016.3
2023-04-16T08:46:02.487Z,1016.3
2023-04-16T08:47:03.092Z,1016.3
2023-04-16T08:48:02.169Z,1016.3
2023-04-16T08:49:01.866Z,1016.4
2023-04-16T08:50:01.865Z,1016.4
2023-04-16T08:51:01.821Z,1016.3
2023-04-16T08:52:01.758Z,1016.4
2023-04-16T08:53:02.059Z,1016.3
2023-04-16T08:54:02.006Z,1016.3
2023-04-16T08:55:01.882Z,1016.4
2023-04-16T08:56:01.918Z,1016.3
2023-04-16T08:57:01.777Z,1016.4
2023-04-16T08:58:01.843Z,1016.4
2023-04-16T08:59:01.706Z,1016.3
2023-04-16T09:00:02.426Z,1016.4
2023-04-16T09:01:02.291Z,1016.4
2023-04-16T09:02:02.777Z,1016.4
2023-04-16T09:03:02.988Z,1016.4
2023-04-16T09:04:02.544Z,1016.4
2023-04-16T09:05:02.657Z,1016.4
2023-04-16T09:06:02.421Z,1016.4
2023-04-16T09:07:02.441Z,1016.4
2023-04-16T09:08:02.401Z,1016.5
2023-04-16T09:09:02.216Z,1016.4
2023-04-16T09:10:02.328Z,1016.4
2023-04-16T09:11:02.081Z,1016.4
2023-04-16T09:12:02.141Z,1016.4
2023-04-16T09:13:02.057Z,1016.5
2023-04-16T09:14:02.019Z,1016.4
2023-04-16T09:15:01.976Z,1016.5
2023-04-16T09:16:02.166Z,1016.5
2023-04-16T09:17:01.708Z,1016.5
2023-04-16T09:18:01.983Z,1016.4
2023-04-16T09:19:01.674Z,1016.5
2023-04-16T09:20:01.813Z,1016.5
2023-04-16T09:21:01.590Z,1016.5
2023-04-16T09:22:02.639Z,1016.5
2023-04-16T09:23:02.591Z,1016.4
2023-04-16T09:24:02.564Z,1016.5
2023-04-16T09:25:02.455Z,1016.5
2023-04-16T09:26:02.572Z,1016.5
2023-04-16T09:27:02.458Z,1016.5
2023-04-16T09:28:02.461Z,1016.5
2023-04-16T09:29:02.485Z,1016.5
2023-04-16T09:30:02.364Z,1016.5
2023-04-16T09:31:02.343Z,1016.5
2023-04-16T09:32:02.062Z,1016.5
2023-04-16T09:33:02.117Z,1016.5
2023-04-16T09:34:01.892Z,1016.5
2023-04-16T09:35:01.984Z,1016.5
2023-04-16T09:36:01.761Z,1016.5
2023-04-16T09:37:01.904Z,1016.5
2023-04-16T09:38:01.715Z,1016.6
2023-04-16T09:39:01.712Z,1016.6
2023-04-16T09:40:02.703Z,1016.6
2023-04-16T09:41:02.535Z,1016.6
2023-04-16T09:42:02.596Z,1016.6
2023-04-16T09:43:02.531Z,1016.6
2023-04-16T09:44:02.793Z,1016.7
2023-04-16T09:45:06.494Z,1016.6
2023-04-16T09:46:08.802Z,1016.6
2023-04-16T09:48:02.710Z,1016.6
2023-04-16T09:49:02.473Z,1016.6
2023-04-16T09:50:02.417Z,1016.7
2023-04-16T09:51:02.353Z,1016.7
2023-04-16T09:52:02.264Z,1016.6
2023-04-16T09:53:02.298Z,1016.6
2023-04-16T09:54:02.304Z,1016.6
2023-04-16T09:55:02.181Z,1016.7
2023-04-16T09:56:02.260Z,1016.6
2023-04-16T09:57:02.020Z,1016.7
2023-04-16T09:58:02.371Z,1016.7
2023-04-16T09:59:01.993Z,1016.7
2023-04-16T10:00:02.800Z,1016.7
2023-04-16T10:01:01.786Z,1016.7
2023-04-16T10:02:16.851Z,1016.7
2023-04-16T10:03:02.808Z,1016.7
2023-04-16T10:04:02.825Z,1016.6
2023-04-16T10:05:02.525Z,1016.6
2023-04-16T10:06:02.617Z,1016.7
2023-04-16T10:07:02.502Z,1016.6
2023-04-16T10:08:02.561Z,1016.6
2023-04-16T10:09:02.417Z,1016.6
2023-04-16T10:10:02.503Z,1016.6
2023-04-16T10:11:02.298Z,1016.6
2023-04-16T10:12:02.327Z,1016.6
2023-04-16T10:13:02.304Z,1016.7
2023-04-16T10:14:02.195Z,1016.6
2023-04-16T10:15:02.253Z,1016.7
2023-04-16T10:16:02.229Z,1016.6
2023-04-16T10:17:01.888Z,1016.6
2023-04-16T10:18:01.986Z,1016.6
2023-04-16T10:19:01.787Z,1016.6
2023-04-16T10:20:02.152Z,1016.6
2023-04-16T10:21:01.732Z,1016.6
2023-04-16T10:22:01.820Z,1016.6
2023-04-16T10:23:01.699Z,1016.7
2023-04-16T10:24:02.154Z,1016.6
2023-04-16T10:25:01.876Z,1016.7
2023-04-16T10:26:02.015Z,1016.7
2023-04-16T10:27:01.771Z,1016.7
2023-04-16T10:28:01.919Z,1016.7
2023-04-16T10:29:01.782Z,1016.7
2023-04-16T10:30:01.735Z,1016.7
2023-04-16T10:31:01.790Z,1016.7
2023-04-16T10:32:01.731Z,1016.7
2023-04-16T10:33:01.894Z,1016.7
2023-04-16T10:34:01.608Z,1016.8
2023-04-16T10:35:02.592Z,1016.7
2023-04-16T10:36:08.471Z,1016.7
2023-04-16T10:37:02.118Z,1016.8
2023-04-16T10:38:02.095Z,1016.7
2023-04-16T10:39:02.000Z,1016.7
2023-04-16T10:40:02.018Z,1016.8
2023-04-16T10:41:01.918Z,1016.8
2023-04-16T10:42:01.910Z,1016.7
2023-04-16T10:43:01.883Z,1016.7
2023-04-16T10:44:01.843Z,1016.7
2023-04-16T10:45:01.668Z,1016.7
2023-04-16T10:46:01.942Z,1016.7
2023-04-16T10:47:02.693Z,1016.7
2023-04-16T10:48:02.537Z,1016.8
2023-04-16T10:49:02.623Z,1016.7
2023-04-16T10:50:02.438Z,1016.7
2023-04-16T10:51:02.496Z,1016.8
2023-04-16T10:52:02.762Z,1016.8
2023-04-16T10:53:02.370Z,1016.8
2023-04-16T10:54:02.402Z,1016.8
2023-04-16T10:55:02.294Z,1016.8
2023-04-16T10:56:02.298Z,1016.8
2023-04-16T10:57:05.033Z,1016.8
2023-04-16T10:58:01.667Z,1016.8
2023-04-16T10:59:01.797Z,1016.7
2023-04-16T11:00:02.028Z,1016.8
2023-04-16T11:01:02.043Z,1016.8
2023-04-16T11:02:02.718Z,1016.8
2023-04-16T11:03:02.921Z,1016.9
2023-04-16T11:04:02.279Z,1016.8
2023-04-16T11:05:02.453Z,1016.8
2023-04-16T11:06:02.163Z,1016.8
2023-04-16T11:07:02.176Z,1016.9
2023-04-16T11:08:02.055Z,1016.9
2023-04-16T11:09:02.207Z,1016.9
2023-04-16T11:10:01.971Z,1016.9
2023-04-16T11:11:02.027Z,1016.9
2023-04-16T11:12:01.861Z,1016.9
2023-04-16T11:13:01.913Z,1016.9
2023-04-16T11:14:01.775Z,1016.9
2023-04-16T11:15:02.049Z,1016.9
2023-04-16T11:16:01.923Z,1016.9
2023-04-16T11:17:01.656Z,1016.9
2023-04-16T11:18:02.843Z,1016.9
2023-04-16T11:19:02.564Z,1016.8
2023-04-16T11:20:02.649Z,1016.8
2023-04-16T11:21:01.664Z,1016.9
2023-04-16T11:22:01.751Z,1016.9
2023-04-16T11:23:02.604Z,1016.9
2023-04-16T11:24:02.463Z,1016.8
2023-04-16T11:25:02.697Z,1016.9
2023-04-16T11:26:02.442Z,1016.8
2023-04-16T11:27:02.460Z,1016.9
2023-04-16T11:28:02.425Z,1016.8
2023-04-16T11:29:02.370Z,1016.8
2023-04-16T11:30:02.464Z,1016.8
2023-04-16T11:31:02.258Z,1016.8
2023-04-16T11:32:02.199Z,1016.9
2023-04-16T11:33:02.328Z,1016.8
2023-04-16T11:34:02.102Z,1016.9
2023-04-16T11:35:02.149Z,1016.9
2023-04-16T11:36:01.952Z,1016.9
2023-04-16T11:37:01.964Z,1016.9
2023-04-16T11:38:01.911Z,1016.9
2023-04-16T11:39:01.868Z,1016.8
2023-04-16T11:40:01.682Z,1016.9
2023-04-16T11:41:01.709Z,1016.9
2023-04-16T11:42:01.737Z,1016.9
2023-04-16T11:43:02.675Z,1016.9
2023-04-16T11:44:02.495Z,1016.8
2023-04-16T11:45:02.634Z,1016.8
2023-04-16T11:46:26.679Z,1016.9
2023-04-16T11:47:02.179Z,1017
2023-04-16T11:48:02.372Z,1016.9
2023-04-16T11:49:02.066Z,1016.9
2023-04-16T11:50:02.095Z,1016.8
2023-04-16T11:51:02.013Z,1016.9
2023-04-16T11:52:01.967Z,1016.9
2023-04-16T11:53:01.784Z,1016.9
2023-04-16T11:54:01.798Z,1016.9
2023-04-16T11:55:01.783Z,1016.9
2023-04-16T11:56:01.654Z,1017
2023-04-16T11:57:02.675Z,1017
2023-04-16T11:58:02.525Z,1017
2023-04-16T11:59:05.253Z,1016.9
2023-04-16T12:00:06.355Z,1016.9
2023-04-16T12:01:01.562Z,1016.9
2023-04-16T12:02:02.276Z,1016.9
2023-04-16T12:03:02.939Z,1016.9
2023-04-16T12:04:03.342Z,1016.9
2023-04-16T12:05:02.320Z,1016.9
2023-04-16T12:06:02.089Z,1017
2023-04-16T12:07:02.020Z,1017
2023-04-16T12:08:02.022Z,1016.9
2023-04-16T12:09:01.869Z,1017
2023-04-16T12:10:01.947Z,1016.9
2023-04-16T12:11:01.798Z,1017
2023-04-16T12:12:01.789Z,1016.9
2023-04-16T12:13:01.817Z,1016.9
2023-04-16T12:14:01.807Z,1016.9
2023-04-16T12:15:01.586Z,1016.9
2023-04-16T12:16:01.733Z,1016.9
2023-04-16T12:17:02.652Z,1016.9
2023-04-16T12:18:02.406Z,1016.9
2023-04-16T12:19:02.481Z,1017
2023-04-16T12:20:02.453Z,1016.9
2023-04-16T12:21:02.101Z,1017
2023-04-16T12:22:02.155Z,1017
2023-04-16T12:23:02.022Z,1016.9
2023-04-16T12:24:02.087Z,1016.9
2023-04-16T12:25:02.033Z,1016.9
2023-04-16T12:26:01.992Z,1016.9
2023-04-16T12:27:01.906Z,1016.9
2023-04-16T12:28:01.904Z,1016.9
2023-04-16T12:29:01.789Z,1016.9
2023-04-16T12:30:01.785Z,1016.9
2023-04-16T12:31:01.921Z,1016.9
2023-04-16T12:32:01.615Z,1016.9
2023-04-16T12:33:01.806Z,1016.8
2023-04-16T12:34:02.678Z,1016.8
2023-04-16T12:35:02.541Z,1016.8
2023-04-16T12:36:03.303Z,1016.9
2023-04-16T12:37:01.916Z,1016.8
2023-04-16T12:38:02.008Z,1016.8
2023-04-16T12:39:01.926Z,1016.8
2023-04-16T12:40:01.768Z,1016.8
2023-04-16T12:41:01.667Z,1016.8
2023-04-16T12:42:02.208Z,1016.9
2023-04-16T12:43:01.935Z,1016.8